sensor_id;sensor_type;location;lat;lon;timestamp;P1;P2;P0
73623;PMS5003;61921;53.226;-1.296;2022-09-09T00:00:12;34;32;
73623;PMS5003;61921;53.226;-1.296;2022-09-09T00:02:35;46;38;
73623;PMS5003;61921;53.226;-1.296;2022-09-09T00:05:04;29;28;
73623;PMS5003;61921;53.226;-1.296;2022-09-09T00:07:29;31;28;
73623;PMS5003;61921;53.226;-1.296;2022-09-09T00:09:58;37;32;
73623;PMS5003;61921;53.226;-1.296;2022-09-09T00:12:18;35;30;
73623;PMS5003;61921;53.226;-1.296;2022-09-09T00:14:46;33;31;
73623;PMS5003;61921;53.226;-1.296;2022-09-09T00:17:09;33;31;
73623;PMS5003;61921;53.226;-1.296;2022-09-09T00:19:36;37;32;
73623;PMS5003;61921;53.226;-1.296;2022-09-09T00:22:01;37;36;
73623;PMS5003;61921;53.226;-1.296;2022-09-09T00:24:24;33;31;
73623;PMS5003;61921;53.226;-1.296;2022-09-09T00:26:51;28;28;
73623;PMS5003;61921;53.226;-1.296;2022-09-09T00:29:20;34;33;
73623;PMS5003;61921;53.226;-1.296;2022-09-09T00:31:45;33;31;
73623;PMS5003;61921;53.226;-1.296;2022-09-09T00:34:09;44;39;
73623;PMS5003;61921;53.226;-1.296;2022-09-09T00:36:31;44;41;
73623;PMS5003;61921;53.226;-1.296;2022-09-09T00:38:57;46;42;
73623;PMS5003;61921;53.226;-1.296;2022-09-09T00:41:25;47;44;
73623;PMS5003;61921;53.226;-1.296;2022-09-09T00:43:51;40;40;
73623;PMS5003;61921;53.226;-1.296;2022-09-09T00:48:40;52;40;
73623;PMS5003;61921;53.226;-1.296;2022-09-09T00:51:05;44;43;
73623;PMS5003;61921;53.226;-1.296;2022-09-09T00:53:31;46;41;
73623;PMS5003;61921;53.226;-1.296;2022-09-09T00:55:57;43;42;
73623;PMS5003;61921;53.226;-1.296;2022-09-09T00:58:20;38;36;
73623;PMS5003;61921;53.226;-1.296;2022-09-09T01:00:46;35;35;
73623;PMS5003;61921;53.226;-1.296;2022-09-09T01:03:15;35;32;
73623;PMS5003;61921;53.226;-1.296;2022-09-09T01:05:38;47;45;
73623;PMS5003;61921;53.226;-1.296;2022-09-09T01:08:03;39;37;
73623;PMS5003;61921;53.226;-1.296;2022-09-09T01:10:30;42;35;
73623;PMS5003;61921;53.226;-1.296;2022-09-09T01:12:52;36;32;
73623;PMS5003;61921;53.226;-1.296;2022-09-09T01:15:19;36;31;
73623;PMS5003;61921;53.226;-1.296;2022-09-09T01:17:49;35;32;
73623;PMS5003;61921;53.226;-1.296;2022-09-09T01:20:10;40;33;
73623;PMS5003;61921;53.226;-1.296;2022-09-09T01:22:35;34;31;
73623;PMS5003;61921;53.226;-1.296;2022-09-09T01:27:25;29;28;
73623;PMS5003;61921;53.226;-1.296;2022-09-09T01:29:51;36;31;
73623;PMS5003;61921;53.226;-1.296;2022-09-09T01:34:42;30;30;
73623;PMS5003;61921;53.226;-1.296;2022-09-09T01:37:08;35;32;
73623;PMS5003;61921;53.226;-1.296;2022-09-09T01:39:33;33;30;
73623;PMS5003;61921;53.226;-1.296;2022-09-09T01:41:58;41;32;
73623;PMS5003;61921;53.226;-1.296;2022-09-09T01:44:24;32;29;
73623;PMS5003;61921;53.226;-1.296;2022-09-09T01:46:49;30;30;
73623;PMS5003;61921;53.226;-1.296;2022-09-09T01:49:14;34;31;
73623;PMS5003;61921;53.226;-1.296;2022-09-09T01:51:40;38;36;
73623;PMS5003;61921;53.226;-1.296;2022-09-09T01:54:05;38;34;
73623;PMS5003;61921;53.226;-1.296;2022-09-09T01:56:35;36;34;
73623;PMS5003;61921;53.226;-1.296;2022-09-09T01:58:59;40;34;
73623;PMS5003;61921;53.226;-1.296;2022-09-09T02:01:24;33;31;
73623;PMS5003;61921;53.226;-1.296;2022-09-09T02:03:49;32;32;
73623;PMS5003;61921;53.226;-1.296;2022-09-09T02:06:14;44;38;
73623;PMS5003;61921;53.226;-1.296;2022-09-09T02:08:39;37;35;
73623;PMS5003;61921;53.226;-1.296;2022-09-09T02:11:05;42;38;
73623;PMS5003;61921;53.226;-1.296;2022-09-09T02:13:29;38;33;
73623;PMS5003;61921;53.226;-1.296;2022-09-09T02:15:55;45;41;
73623;PMS5003;61921;53.226;-1.296;2022-09-09T02:18:21;39;35;
73623;PMS5003;61921;53.226;-1.296;2022-09-09T02:20:45;36;34;
73623;PMS5003;61921;53.226;-1.296;2022-09-09T02:23:11;46;41;
73623;PMS5003;61921;53.226;-1.296;2022-09-09T02:25:36;47;40;
73623;PMS5003;61921;53.226;-1.296;2022-09-09T02:28:01;52;43;
73623;PMS5003;61921;53.226;-1.296;2022-09-09T02:30:27;51;43;
73623;PMS5003;61921;53.226;-1.296;2022-09-09T02:32:53;43;38;
73623;PMS5003;61921;53.226;-1.296;2022-09-09T02:35:19;43;42;
73623;PMS5003;61921;53.226;-1.296;2022-09-09T02:37:44;47;40;
73623;PMS5003;61921;53.226;-1.296;2022-09-09T02:40:10;49;45;
73623;PMS5003;61921;53.226;-1.296;2022-09-09T02:42:38;51;46;
73623;PMS5003;61921;53.226;-1.296;2022-09-09T02:44:59;54;44;
73623;PMS5003;61921;53.226;-1.296;2022-09-09T02:47:27;44;39;
73623;PMS5003;61921;53.226;-1.296;2022-09-09T02:49:56;42;39;
73623;PMS5003;61921;53.226;-1.296;2022-09-09T02:52:17;44;41;
73623;PMS5003;61921;53.226;-1.296;2022-09-09T02:54:42;49;40;
73623;PMS5003;61921;53.226;-1.296;2022-09-09T02:57:08;49;43;
73623;PMS5003;61921;53.226;-1.296;2022-09-09T02:59:33;44;36;
73623;PMS5003;61921;53.226;-1.296;2022-09-09T03:01:58;49;41;
73623;PMS5003;61921;53.226;-1.296;2022-09-09T03:04:24;45;44;
73623;PMS5003;61921;53.226;-1.296;2022-09-09T03:06:49;44;38;
73623;PMS5003;61921;53.226;-1.296;2022-09-09T03:09:14;54;41;
73623;PMS5003;61921;53.226;-1.296;2022-09-09T03:11:40;44;43;
73623;PMS5003;61921;53.226;-1.296;2022-09-09T03:14:05;51;45;
73623;PMS5003;61921;53.226;-1.296;2022-09-09T03:16:30;47;38;
73623;PMS5003;61921;53.226;-1.296;2022-09-09T03:18:55;46;40;
73623;PMS5003;61921;53.226;-1.296;2022-09-09T03:21:21;50;41;
73623;PMS5003;61921;53.226;-1.296;2022-09-09T03:23:46;51;43;
73623;PMS5003;61921;53.226;-1.296;2022-09-09T03:26:12;50;44;
73623;PMS5003;61921;53.226;-1.296;2022-09-09T03:28:37;55;46;
73623;PMS5003;61921;53.226;-1.296;2022-09-09T03:31:03;46;40;
73623;PMS5003;61921;53.226;-1.296;2022-09-09T03:33:28;44;40;
73623;PMS5003;61921;53.226;-1.296;2022-09-09T03:35:54;46;40;
73623;PMS5003;61921;53.226;-1.296;2022-09-09T03:38:20;49;45;
73623;PMS5003;61921;53.226;-1.296;2022-09-09T03:40:49;55;46;
73623;PMS5003;61921;53.226;-1.296;2022-09-09T03:43:10;47;40;
73623;PMS5003;61921;53.226;-1.296;2022-09-09T03:45:36;43;39;
73623;PMS5003;61921;53.226;-1.296;2022-09-09T03:48:02;47;43;
73623;PMS5003;61921;53.226;-1.296;2022-09-09T03:50:27;53;49;
73623;PMS5003;61921;53.226;-1.296;2022-09-09T03:52:52;53;46;
73623;PMS5003;61921;53.226;-1.296;2022-09-09T03:55:18;61;49;
73623;PMS5003;61921;53.226;-1.296;2022-09-09T03:57:43;55;46;
73623;PMS5003;61921;53.226;-1.296;2022-09-09T04:00:09;57;47;
73623;PMS5003;61921;53.226;-1.296;2022-09-09T04:02:34;60;50;
73623;PMS5003;61921;53.226;-1.296;2022-09-09T04:05:00;63;53;
73623;PMS5003;61921;53.226;-1.296;2022-09-09T04:07:26;52;44;
73623;PMS5003;61921;53.226;-1.296;2022-09-09T04:09:51;47;46;
73623;PMS5003;61921;53.226;-1.296;2022-09-09T04:12:17;46;42;
73623;PMS5003;61921;53.226;-1.296;2022-09-09T04:14:42;54;47;
73623;PMS5003;61921;53.226;-1.296;2022-09-09T04:17:08;52;44;
73623;PMS5003;61921;53.226;-1.296;2022-09-09T04:19:33;58;45;
73623;PMS5003;61921;53.226;-1.296;2022-09-09T04:21:59;45;41;
73623;PMS5003;61921;53.226;-1.296;2022-09-09T04:24:24;47;43;
73623;PMS5003;61921;53.226;-1.296;2022-09-09T04:26:49;55;43;
73623;PMS5003;61921;53.226;-1.296;2022-09-09T04:29:14;55;48;
73623;PMS5003;61921;53.226;-1.296;2022-09-09T04:31:39;54;48;
73623;PMS5003;61921;53.226;-1.296;2022-09-09T04:34:04;54;46;
73623;PMS5003;61921;53.226;-1.296;2022-09-09T04:36:30;59;50;
73623;PMS5003;61921;53.226;-1.296;2022-09-09T04:38:55;57;49;
73623;PMS5003;61921;53.226;-1.296;2022-09-09T04:41:20;55;45;
73623;PMS5003;61921;53.226;-1.296;2022-09-09T04:43:46;55;49;
73623;PMS5003;61921;53.226;-1.296;2022-09-09T04:46:12;51;48;
73623;PMS5003;61921;53.226;-1.296;2022-09-09T04:48:37;58;53;
73623;PMS5003;61921;53.226;-1.296;2022-09-09T04:51:03;51;46;
73623;PMS5003;61921;53.226;-1.296;2022-09-09T04:53:28;67;50;
73623;PMS5003;61921;53.226;-1.296;2022-09-09T04:56:00;57;51;
73623;PMS5003;61921;53.226;-1.296;2022-09-09T04:58:18;55;50;
73623;PMS5003;61921;53.226;-1.296;2022-09-09T05:00:43;51;43;
73623;PMS5003;61921;53.226;-1.296;2022-09-09T05:03:08;54;48;
73623;PMS5003;61921;53.226;-1.296;2022-09-09T05:05:34;50;43;
73623;PMS5003;61921;53.226;-1.296;2022-09-09T05:08:00;48;41;
73623;PMS5003;61921;53.226;-1.296;2022-09-09T05:10:24;56;47;
73623;PMS5003;61921;53.226;-1.296;2022-09-09T05:12:52;51;45;
73623;PMS5003;61921;53.226;-1.296;2022-09-09T05:15:15;50;46;
73623;PMS5003;61921;53.226;-1.296;2022-09-09T05:17:40;52;47;
73623;PMS5003;61921;53.226;-1.296;2022-09-09T05:20:06;43;43;
73623;PMS5003;61921;53.226;-1.296;2022-09-09T05:22:32;47;43;
73623;PMS5003;61921;53.226;-1.296;2022-09-09T05:24:58;55;44;
73623;PMS5003;61921;53.226;-1.296;2022-09-09T05:27:23;47;41;
73623;PMS5003;61921;53.226;-1.296;2022-09-09T05:29:48;53;48;
73623;PMS5003;61921;53.226;-1.296;2022-09-09T05:32:14;47;41;
73623;PMS5003;61921;53.226;-1.296;2022-09-09T05:34:39;52;47;
73623;PMS5003;61921;53.226;-1.296;2022-09-09T05:37:05;45;40;
73623;PMS5003;61921;53.226;-1.296;2022-09-09T05:39:31;43;41;
73623;PMS5003;61921;53.226;-1.296;2022-09-09T05:41:56;45;45;
73623;PMS5003;61921;53.226;-1.296;2022-09-09T05:44:21;51;48;
73623;PMS5003;61921;53.226;-1.296;2022-09-09T05:46:47;56;50;
73623;PMS5003;61921;53.226;-1.296;2022-09-09T05:49:13;53;49;
73623;PMS5003;61921;53.226;-1.296;2022-09-09T05:51:39;49;42;
73623;PMS5003;61921;53.226;-1.296;2022-09-09T05:54:04;57;49;
73623;PMS5003;61921;53.226;-1.296;2022-09-09T05:56:29;57;51;
73623;PMS5003;61921;53.226;-1.296;2022-09-09T05:58:55;52;47;
73623;PMS5003;61921;53.226;-1.296;2022-09-09T06:01:22;51;45;
73623;PMS5003;61921;53.226;-1.296;2022-09-09T06:03:47;56;47;
73623;PMS5003;61921;53.226;-1.296;2022-09-09T06:06:13;60;52;
73623;PMS5003;61921;53.226;-1.296;2022-09-09T06:08:39;47;42;
73623;PMS5003;61921;53.226;-1.296;2022-09-09T06:11:04;51;43;
73623;PMS5003;61921;53.226;-1.296;2022-09-09T06:13:29;53;51;
73623;PMS5003;61921;53.226;-1.296;2022-09-09T06:15:54;50;41;
73623;PMS5003;61921;53.226;-1.296;2022-09-09T06:18:21;49;45;
73623;PMS5003;61921;53.226;-1.296;2022-09-09T06:23:11;54;48;
73623;PMS5003;61921;53.226;-1.296;2022-09-09T06:25:37;54;50;
73623;PMS5003;61921;53.226;-1.296;2022-09-09T06:28:02;47;45;
73623;PMS5003;61921;53.226;-1.296;2022-09-09T06:30:28;49;45;
73623;PMS5003;61921;53.226;-1.296;2022-09-09T06:32:55;51;48;
73623;PMS5003;61921;53.226;-1.296;2022-09-09T06:35:19;59;49;
73623;PMS5003;61921;53.226;-1.296;2022-09-09T06:37:44;53;46;
73623;PMS5003;61921;53.226;-1.296;2022-09-09T06:40:10;52;49;
73623;PMS5003;61921;53.226;-1.296;2022-09-09T06:42:35;45;44;
73623;PMS5003;61921;53.226;-1.296;2022-09-09T06:45:01;49;43;
73623;PMS5003;61921;53.226;-1.296;2022-09-09T06:47:27;46;46;
73623;PMS5003;61921;53.226;-1.296;2022-09-09T06:49:51;52;45;
73623;PMS5003;61921;53.226;-1.296;2022-09-09T06:52:16;56;50;
73623;PMS5003;61921;53.226;-1.296;2022-09-09T06:54:41;48;41;
73623;PMS5003;61921;53.226;-1.296;2022-09-09T06:57:07;47;43;
73623;PMS5003;61921;53.226;-1.296;2022-09-09T06:59:32;56;49;
73623;PMS5003;61921;53.226;-1.296;2022-09-09T07:01:58;51;47;
73623;PMS5003;61921;53.226;-1.296;2022-09-09T07:04:23;52;45;
73623;PMS5003;61921;53.226;-1.296;2022-09-09T07:06:49;67;54;
73623;PMS5003;61921;53.226;-1.296;2022-09-09T07:09:15;52;49;
73623;PMS5003;61921;53.226;-1.296;2022-09-09T07:11:40;53;50;
73623;PMS5003;61921;53.226;-1.296;2022-09-09T07:14:05;50;47;
73623;PMS5003;61921;53.226;-1.296;2022-09-09T07:16:31;50;44;
73623;PMS5003;61921;53.226;-1.296;2022-09-09T07:18:56;47;45;
73623;PMS5003;61921;53.226;-1.296;2022-09-09T07:21:21;49;46;
73623;PMS5003;61921;53.226;-1.296;2022-09-09T07:23:47;53;45;
73623;PMS5003;61921;53.226;-1.296;2022-09-09T07:26:13;50;44;
73623;PMS5003;61921;53.226;-1.296;2022-09-09T07:28:38;46;42;
73623;PMS5003;61921;53.226;-1.296;2022-09-09T07:31:03;53;46;
73623;PMS5003;61921;53.226;-1.296;2022-09-09T07:33:28;43;42;
73623;PMS5003;61921;53.226;-1.296;2022-09-09T07:35:53;49;44;
73623;PMS5003;61921;53.226;-1.296;2022-09-09T07:38:19;43;40;
73623;PMS5003;61921;53.226;-1.296;2022-09-09T07:40:44;43;37;
73623;PMS5003;61921;53.226;-1.296;2022-09-09T07:43:10;50;45;
73623;PMS5003;61921;53.226;-1.296;2022-09-09T07:45:35;48;43;
73623;PMS5003;61921;53.226;-1.296;2022-09-09T07:48:01;44;40;
73623;PMS5003;61921;53.226;-1.296;2022-09-09T07:50:26;41;37;
73623;PMS5003;61921;53.226;-1.296;2022-09-09T07:52:52;42;38;
73623;PMS5003;61921;53.226;-1.296;2022-09-09T07:55:17;44;38;
73623;PMS5003;61921;53.226;-1.296;2022-09-09T07:57:42;59;49;
73623;PMS5003;61921;53.226;-1.296;2022-09-09T08:00:08;50;41;
73623;PMS5003;61921;53.226;-1.296;2022-09-09T08:02:33;49;46;
73623;PMS5003;61921;53.226;-1.296;2022-09-09T08:04:58;49;41;
73623;PMS5003;61921;53.226;-1.296;2022-09-09T08:07:23;50;44;
73623;PMS5003;61921;53.226;-1.296;2022-09-09T08:09:49;49;42;
73623;PMS5003;61921;53.226;-1.296;2022-09-09T08:12:14;39;36;
73623;PMS5003;61921;53.226;-1.296;2022-09-09T08:14:40;44;41;
73623;PMS5003;61921;53.226;-1.296;2022-09-09T08:17:05;52;41;
73623;PMS5003;61921;53.226;-1.296;2022-09-09T08:19:30;52;42;
73623;PMS5003;61921;53.226;-1.296;2022-09-09T08:21:55;44;40;
73623;PMS5003;61921;53.226;-1.296;2022-09-09T08:24:21;52;45;
73623;PMS5003;61921;53.226;-1.296;2022-09-09T08:26:47;51;43;
73623;PMS5003;61921;53.226;-1.296;2022-09-09T08:29:12;39;37;
73623;PMS5003;61921;53.226;-1.296;2022-09-09T08:31:39;40;37;
73623;PMS5003;61921;53.226;-1.296;2022-09-09T08:34:03;43;38;
73623;PMS5003;61921;53.226;-1.296;2022-09-09T08:36:29;40;36;
73623;PMS5003;61921;53.226;-1.296;2022-09-09T08:38:54;38;37;
73623;PMS5003;61921;53.226;-1.296;2022-09-09T08:41:26;41;36;
73623;PMS5003;61921;53.226;-1.296;2022-09-09T08:43:44;46;40;
73623;PMS5003;61921;53.226;-1.296;2022-09-09T08:46:11;39;36;
73623;PMS5003;61921;53.226;-1.296;2022-09-09T08:48:39;35;34;
73623;PMS5003;61921;53.226;-1.296;2022-09-09T08:51:01;38;35;
73623;PMS5003;61921;53.226;-1.296;2022-09-09T08:53:26;39;35;
73623;PMS5003;61921;53.226;-1.296;2022-09-09T08:55:52;30;30;
73623;PMS5003;61921;53.226;-1.296;2022-09-09T08:58:18;35;33;
73623;PMS5003;61921;53.226;-1.296;2022-09-09T09:00:47;33;30;
73623;PMS5003;61921;53.226;-1.296;2022-09-09T09:03:11;30;28;
73623;PMS5003;61921;53.226;-1.296;2022-09-09T09:05:35;29;25;
73623;PMS5003;61921;53.226;-1.296;2022-09-09T09:08:01;26;22;
73623;PMS5003;61921;53.226;-1.296;2022-09-09T09:10:28;25;24;
73623;PMS5003;61921;53.226;-1.296;2022-09-09T09:12:50;29;28;
73623;PMS5003;61921;53.226;-1.296;2022-09-09T09:15:17;30;28;
73623;PMS5003;61921;53.226;-1.296;2022-09-09T09:17:41;33;30;
73623;PMS5003;61921;53.226;-1.296;2022-09-09T09:20:11;35;32;
73623;PMS5003;61921;53.226;-1.296;2022-09-09T09:22:32;27;25;
73623;PMS5003;61921;53.226;-1.296;2022-09-09T09:24:59;23;23;
73623;PMS5003;61921;53.226;-1.296;2022-09-09T09:27:28;18;17;
73623;PMS5003;61921;53.226;-1.296;2022-09-09T09:29:48;18;17;
73623;PMS5003;61921;53.226;-1.296;2022-09-09T09:32:16;19;18;
73623;PMS5003;61921;53.226;-1.296;2022-09-09T09:34:39;20;19;
73623;PMS5003;61921;53.226;-1.296;2022-09-09T09:37:07;25;23;
73623;PMS5003;61921;53.226;-1.296;2022-09-09T09:39:31;24;20;
73623;PMS5003;61921;53.226;-1.296;2022-09-09T09:41:56;25;24;
73623;PMS5003;61921;53.226;-1.296;2022-09-09T09:44:23;20;19;
73623;PMS5003;61921;53.226;-1.296;2022-09-09T09:46:46;21;20;
73623;PMS5003;61921;53.226;-1.296;2022-09-09T09:49:12;19;15;
73623;PMS5003;61921;53.226;-1.296;2022-09-09T09:51:37;14;14;
73623;PMS5003;61921;53.226;-1.296;2022-09-09T09:54:04;18;13;
73623;PMS5003;61921;53.226;-1.296;2022-09-09T09:56:27;17;15;
73623;PMS5003;61921;53.226;-1.296;2022-09-09T09:58:53;12;12;
73623;PMS5003;61921;53.226;-1.296;2022-09-09T10:01:19;14;13;
73623;PMS5003;61921;53.226;-1.296;2022-09-09T10:03:49;8;8;
73623;PMS5003;61921;53.226;-1.296;2022-09-09T10:06:08;10;7;
73623;PMS5003;61921;53.226;-1.296;2022-09-09T10:08:34;12;10;
73623;PMS5003;61921;53.226;-1.296;2022-09-09T10:11:02;12;7;
73623;PMS5003;61921;53.226;-1.296;2022-09-09T10:13:25;7;7;
73623;PMS5003;61921;53.226;-1.296;2022-09-09T10:15:53;7;7;
73623;PMS5003;61921;53.226;-1.296;2022-09-09T10:18:19;9;9;
73623;PMS5003;61921;53.226;-1.296;2022-09-09T10:20:42;11;9;
73623;PMS5003;61921;53.226;-1.296;2022-09-09T10:23:08;7;7;
73623;PMS5003;61921;53.226;-1.296;2022-09-09T10:25:34;11;9;
73623;PMS5003;61921;53.226;-1.296;2022-09-09T10:30:21;10;10;
73623;PMS5003;61921;53.226;-1.296;2022-09-09T10:32:46;13;10;
73623;PMS5003;61921;53.226;-1.296;2022-09-09T10:35:12;11;9;
73623;PMS5003;61921;53.226;-1.296;2022-09-09T10:37:40;15;15;
73623;PMS5003;61921;53.226;-1.296;2022-09-09T10:40:04;15;15;
73623;PMS5003;61921;53.226;-1.296;2022-09-09T10:42:28;14;11;
73623;PMS5003;61921;53.226;-1.296;2022-09-09T10:44:56;12;11;
73623;PMS5003;61921;53.226;-1.296;2022-09-09T10:47:26;12;12;
73623;PMS5003;61921;53.226;-1.296;2022-09-09T10:49:51;9;7;
73623;PMS5003;61921;53.226;-1.296;2022-09-09T10:52:09;11;11;
73623;PMS5003;61921;53.226;-1.296;2022-09-09T10:54:37;9;9;
73623;PMS5003;61921;53.226;-1.296;2022-09-09T10:56:59;11;10;
73623;PMS5003;61921;53.226;-1.296;2022-09-09T10:59:24;11;10;
73623;PMS5003;61921;53.226;-1.296;2022-09-09T11:01:50;12;11;
73623;PMS5003;61921;53.226;-1.296;2022-09-09T11:04:15;13;11;
73623;PMS5003;61921;53.226;-1.296;2022-09-09T11:06:40;12;10;
73623;PMS5003;61921;53.226;-1.296;2022-09-09T11:09:04;12;12;
73623;PMS5003;61921;53.226;-1.296;2022-09-09T11:11:31;10;10;
73623;PMS5003;61921;53.226;-1.296;2022-09-09T11:13:55;13;10;
73623;PMS5003;61921;53.226;-1.296;2022-09-09T11:16:22;10;10;
73623;PMS5003;61921;53.226;-1.296;2022-09-09T11:18:45;8;7;
73623;PMS5003;61921;53.226;-1.296;2022-09-09T11:21:12;7;6;
73623;PMS5003;61921;53.226;-1.296;2022-09-09T11:23:37;8;7;
73623;PMS5003;61921;53.226;-1.296;2022-09-09T11:26:01;14;14;
73623;PMS5003;61921;53.226;-1.296;2022-09-09T11:28:29;11;8;
73623;PMS5003;61921;53.226;-1.296;2022-09-09T11:30:54;7;7;
73623;PMS5003;61921;53.226;-1.296;2022-09-09T11:35:45;11;10;
73623;PMS5003;61921;53.226;-1.296;2022-09-09T11:40:32;9;9;
73623;PMS5003;61921;53.226;-1.296;2022-09-09T11:43:02;8;8;
73623;PMS5003;61921;53.226;-1.296;2022-09-09T11:45:23;10;9;
73623;PMS5003;61921;53.226;-1.296;2022-09-09T11:47:51;8;8;
73623;PMS5003;61921;53.226;-1.296;2022-09-09T11:52:37;5;5;
73623;PMS5003;61921;53.226;-1.296;2022-09-09T11:57:30;6;5;
73623;PMS5003;61921;53.226;-1.296;2022-09-09T11:59:53;6;6;
73623;PMS5003;61921;53.226;-1.296;2022-09-09T12:02:19;10;5;
73623;PMS5003;61921;53.226;-1.296;2022-09-09T12:04:43;7;6;
73623;PMS5003;61921;53.226;-1.296;2022-09-09T12:09:37;6;4;
73623;PMS5003;61921;53.226;-1.296;2022-09-09T12:12:05;7;4;
73623;PMS5003;61921;53.226;-1.296;2022-09-09T12:14:36;3;3;
73623;PMS5003;61921;53.226;-1.296;2022-09-09T12:16:48;4;4;
73623;PMS5003;61921;53.226;-1.296;2022-09-09T12:19:15;5;5;
73623;PMS5003;61921;53.226;-1.296;2022-09-09T12:21:39;4;4;
73623;PMS5003;61921;53.226;-1.296;2022-09-09T12:24:03;3;3;
73623;PMS5003;61921;53.226;-1.296;2022-09-09T12:26:30;4;4;
73623;PMS5003;61921;53.226;-1.296;2022-09-09T12:28:56;6;5;
73623;PMS5003;61921;53.226;-1.296;2022-09-09T12:31:20;2;2;
73623;PMS5003;61921;53.226;-1.296;2022-09-09T12:33:45;3;3;
73623;PMS5003;61921;53.226;-1.296;2022-09-09T12:36:11;5;4;
73623;PMS5003;61921;53.226;-1.296;2022-09-09T12:38:36;3;3;
73623;PMS5003;61921;53.226;-1.296;2022-09-09T12:41:02;3;2;
73623;PMS5003;61921;53.226;-1.296;2022-09-09T12:43:27;6;2;
73623;PMS5003;61921;53.226;-1.296;2022-09-09T12:45:53;2;2;
73623;PMS5003;61921;53.226;-1.296;2022-09-09T12:48:17;2;2;
73623;PMS5003;61921;53.226;-1.296;2022-09-09T12:50:44;1;1;
73623;PMS5003;61921;53.226;-1.296;2022-09-09T12:53:08;2;2;
73623;PMS5003;61921;53.226;-1.296;2022-09-09T12:55:34;2;2;
73623;PMS5003;61921;53.226;-1.296;2022-09-09T12:57:58;3;3;
73623;PMS5003;61921;53.226;-1.296;2022-09-09T13:00:24;3;3;
73623;PMS5003;61921;53.226;-1.296;2022-09-09T13:02:50;3;3;
73623;PMS5003;61921;53.226;-1.296;2022-09-09T13:05:15;3;3;
73623;PMS5003;61921;53.226;-1.296;2022-09-09T13:07:39;3;3;
73623;PMS5003;61921;53.226;-1.296;2022-09-09T13:10:04;5;4;
73623;PMS5003;61921;53.226;-1.296;2022-09-09T13:12:29;3;3;
73623;PMS5003;61921;53.226;-1.296;2022-09-09T13:14:55;4;3;
73623;PMS5003;61921;53.226;-1.296;2022-09-09T13:17:21;3;3;
73623;PMS5003;61921;53.226;-1.296;2022-09-09T13:19:44;1;1;
73623;PMS5003;61921;53.226;-1.296;2022-09-09T13:22:12;2;2;
73623;PMS5003;61921;53.226;-1.296;2022-09-09T13:24:34;6;6;
73623;PMS5003;61921;53.226;-1.296;2022-09-09T13:27:00;0;0;
73623;PMS5003;61921;53.226;-1.296;2022-09-09T13:29:25;2;2;
73623;PMS5003;61921;53.226;-1.296;2022-09-09T13:31:50;3;3;
73623;PMS5003;61921;53.226;-1.296;2022-09-09T13:36:40;5;4;
73623;PMS5003;61921;53.226;-1.296;2022-09-09T13:41:31;7;4;
73623;PMS5003;61921;53.226;-1.296;2022-09-09T13:43:55;3;3;
73623;PMS5003;61921;53.226;-1.296;2022-09-09T13:46:24;1;1;
73623;PMS5003;61921;53.226;-1.296;2022-09-09T13:53:37;4;4;
73623;PMS5003;61921;53.226;-1.296;2022-09-09T13:56:01;3;3;
73623;PMS5003;61921;53.226;-1.296;2022-09-09T13:58:27;3;1;
73623;PMS5003;61921;53.226;-1.296;2022-09-09T14:00:52;6;5;
73623;PMS5003;61921;53.226;-1.296;2022-09-09T14:03:17;5;4;
73623;PMS5003;61921;53.226;-1.296;2022-09-09T14:05:43;7;5;
73623;PMS5003;61921;53.226;-1.296;2022-09-09T14:08:20;5;5;
73623;PMS5003;61921;53.226;-1.296;2022-09-09T14:10:32;4;4;
73623;PMS5003;61921;53.226;-1.296;2022-09-09T14:12:57;4;4;
73623;PMS5003;61921;53.226;-1.296;2022-09-09T14:15:23;5;5;
73623;PMS5003;61921;53.226;-1.296;2022-09-09T14:17:48;6;5;
73623;PMS5003;61921;53.226;-1.296;2022-09-09T14:20:13;6;6;
73623;PMS5003;61921;53.226;-1.296;2022-09-09T14:22:39;6;6;
73623;PMS5003;61921;53.226;-1.296;2022-09-09T14:25:04;5;5;
73623;PMS5003;61921;53.226;-1.296;2022-09-09T14:27:29;5;5;
73623;PMS5003;61921;53.226;-1.296;2022-09-09T14:29:54;7;7;
73623;PMS5003;61921;53.226;-1.296;2022-09-09T14:32:19;6;6;
73623;PMS5003;61921;53.226;-1.296;2022-09-09T14:34:44;11;11;
73623;PMS5003;61921;53.226;-1.296;2022-09-09T14:37:09;9;9;
73623;PMS5003;61921;53.226;-1.296;2022-09-09T14:39:34;7;7;
73623;PMS5003;61921;53.226;-1.296;2022-09-09T14:41:59;3;3;
73623;PMS5003;61921;53.226;-1.296;2022-09-09T14:44:25;1;1;
73623;PMS5003;61921;53.226;-1.296;2022-09-09T14:46:50;1;1;
73623;PMS5003;61921;53.226;-1.296;2022-09-09T14:49:15;4;3;
73623;PMS5003;61921;53.226;-1.296;2022-09-09T14:51:40;3;2;
73623;PMS5003;61921;53.226;-1.296;2022-09-09T14:54:06;2;2;
73623;PMS5003;61921;53.226;-1.296;2022-09-09T14:56:31;3;2;
73623;PMS5003;61921;53.226;-1.296;2022-09-09T14:58:56;3;3;
73623;PMS5003;61921;53.226;-1.296;2022-09-09T15:01:21;3;3;
73623;PMS5003;61921;53.226;-1.296;2022-09-09T15:03:49;4;4;
73623;PMS5003;61921;53.226;-1.296;2022-09-09T15:06:12;4;4;
73623;PMS5003;61921;53.226;-1.296;2022-09-09T15:08:36;3;3;
73623;PMS5003;61921;53.226;-1.296;2022-09-09T15:11:02;4;4;
73623;PMS5003;61921;53.226;-1.296;2022-09-09T15:13:26;3;3;
73623;PMS5003;61921;53.226;-1.296;2022-09-09T15:15:51;6;5;
73623;PMS5003;61921;53.226;-1.296;2022-09-09T15:18:17;5;5;
73623;PMS5003;61921;53.226;-1.296;2022-09-09T15:20:44;4;4;
73623;PMS5003;61921;53.226;-1.296;2022-09-09T15:23:07;2;2;
73623;PMS5003;61921;53.226;-1.296;2022-09-09T15:25:32;1;0;
73623;PMS5003;61921;53.226;-1.296;2022-09-09T15:27:57;1;1;
73623;PMS5003;61921;53.226;-1.296;2022-09-09T15:30:22;2;1;
73623;PMS5003;61921;53.226;-1.296;2022-09-09T15:32:47;4;0;
73623;PMS5003;61921;53.226;-1.296;2022-09-09T15:35:14;1;1;
73623;PMS5003;61921;53.226;-1.296;2022-09-09T15:37:39;1;1;
73623;PMS5003;61921;53.226;-1.296;2022-09-09T15:40:04;3;3;
73623;PMS5003;61921;53.226;-1.296;2022-09-09T15:42:29;3;3;
73623;PMS5003;61921;53.226;-1.296;2022-09-09T15:44:54;1;1;
73623;PMS5003;61921;53.226;-1.296;2022-09-09T15:47:19;3;3;
73623;PMS5003;61921;53.226;-1.296;2022-09-09T15:49:45;2;2;
73623;PMS5003;61921;53.226;-1.296;2022-09-09T15:52:10;4;3;
73623;PMS5003;61921;53.226;-1.296;2022-09-09T15:54:35;2;2;
73623;PMS5003;61921;53.226;-1.296;2022-09-09T15:57:01;2;2;
73623;PMS5003;61921;53.226;-1.296;2022-09-09T15:59:25;0;0;
73623;PMS5003;61921;53.226;-1.296;2022-09-09T16:01:50;1;1;
73623;PMS5003;61921;53.226;-1.296;2022-09-09T16:04:15;5;2;
73623;PMS5003;61921;53.226;-1.296;2022-09-09T16:06:40;5;3;
73623;PMS5003;61921;53.226;-1.296;2022-09-09T16:09:06;2;2;
73623;PMS5003;61921;53.226;-1.296;2022-09-09T16:11:31;1;1;
73623;PMS5003;61921;53.226;-1.296;2022-09-09T16:13:56;3;3;
73623;PMS5003;61921;53.226;-1.296;2022-09-09T16:16:21;4;2;
73623;PMS5003;61921;53.226;-1.296;2022-09-09T16:18:47;6;5;
73623;PMS5003;61921;53.226;-1.296;2022-09-09T16:23:36;3;3;
73623;PMS5003;61921;53.226;-1.296;2022-09-09T16:26:01;5;5;
73623;PMS5003;61921;53.226;-1.296;2022-09-09T16:28:27;5;5;
73623;PMS5003;61921;53.226;-1.296;2022-09-09T16:30:52;3;3;
73623;PMS5003;61921;53.226;-1.296;2022-09-09T16:33:17;2;2;